sensor_id;sensor_type;location;lat;lon;timestamp;pressure;altitude;pressure_sealevel;temperature
70389;BMP280;58659;49.050;8.530;2022-11-24T00:00:18;99082.63;;;7.98
70389;BMP280;58659;49.050;8.530;2022-11-24T00:02:44;99082.25;;;7.96
70389;BMP280;58659;49.050;8.530;2022-11-24T00:05:09;99096.03;;;8.00
70389;BMP280;58659;49.050;8.530;2022-11-24T00:07:34;99088.53;;;7.95
70389;BMP280;58659;49.050;8.530;2022-11-24T00:09:59;99096.28;;;7.91
70389;BMP280;58659;49.050;8.530;2022-11-24T00:12:25;99104.81;;;7.92
70389;BMP280;58659;49.050;8.530;2022-11-24T00:14:50;99089.22;;;7.92
70389;BMP280;58659;49.050;8.530;2022-11-24T00:17:15;99093.09;;;8.02
70389;BMP280;58659;49.050;8.530;2022-11-24T00:19:40;99117.09;;;8.14
70389;BMP280;58659;49.050;8.530;2022-11-24T00:22:06;99109.75;;;8.20
70389;BMP280;58659;49.050;8.530;2022-11-24T00:24:31;99117.59;;;8.23
70389;BMP280;58659;49.050;8.530;2022-11-24T00:26:56;99120.28;;;8.27
70389;BMP280;58659;49.050;8.530;2022-11-24T00:29:22;99127.34;;;8.26
70389;BMP280;58659;49.050;8.530;2022-11-24T00:31:47;99125.50;;;8.27
70389;BMP280;58659;49.050;8.530;2022-11-24T00:34:13;99135.94;;;8.30
70389;BMP280;58659;49.050;8.530;2022-11-24T00:36:39;99130.44;;;8.35
70389;BMP280;58659;49.050;8.530;2022-11-24T00:39:07;99143.88;;;8.37
70389;BMP280;58659;49.050;8.530;2022-11-24T00:41:32;99139.13;;;8.43
70389;BMP280;58659;49.050;8.530;2022-11-24T00:43:59;99137.59;;;8.38
70389;BMP280;58659;49.050;8.530;2022-11-24T00:46:25;99138.34;;;8.42
70389;BMP280;58659;49.050;8.530;2022-11-24T00:48:51;99137.59;;;8.42
70389;BMP280;58659;49.050;8.530;2022-11-24T00:51:19;99145.75;;;8.40
70389;BMP280;58659;49.050;8.530;2022-11-24T00:53:45;99151.72;;;8.41
70389;BMP280;58659;49.050;8.530;2022-11-24T00:56:11;99150.38;;;8.51
70389;BMP280;58659;49.050;8.530;2022-11-24T00:58:37;99161.59;;;8.55
70389;BMP280;58659;49.050;8.530;2022-11-24T01:01:13;99167.56;;;8.55
70389;BMP280;58659;49.050;8.530;2022-11-24T01:03:39;99172.13;;;8.62
70389;BMP280;58659;49.050;8.530;2022-11-24T01:06:06;99170.97;;;8.59
70389;BMP280;58659;49.050;8.530;2022-11-24T01:08:33;99173.66;;;8.63
70389;BMP280;58659;49.050;8.530;2022-11-24T01:11:06;99191.28;;;8.73
70389;BMP280;58659;49.050;8.530;2022-11-24T01:13:32;99191.69;;;8.75
70389;BMP280;58659;49.050;8.530;2022-11-24T01:15:57;99194.53;;;8.70
70389;BMP280;58659;49.050;8.530;2022-11-24T01:18:22;99204.28;;;8.73
70389;BMP280;58659;49.050;8.530;2022-11-24T01:20:47;99216.22;;;8.74
70389;BMP280;58659;49.050;8.530;2022-11-24T01:23:13;99213.63;;;8.74
70389;BMP280;58659;49.050;8.530;2022-11-24T01:25:38;99215.50;;;8.77
70389;BMP280;58659;49.050;8.530;2022-11-24T01:28:04;99215.19;;;8.78
70389;BMP280;58659;49.050;8.530;2022-11-24T01:30:29;99215.13;;;8.75
70389;BMP280;58659;49.050;8.530;2022-11-24T01:32:54;99225.97;;;8.80
70389;BMP280;58659;49.050;8.530;2022-11-24T01:35:19;99229.06;;;8.86
70389;BMP280;58659;49.050;8.530;2022-11-24T01:37:45;99220.81;;;8.84
70389;BMP280;58659;49.050;8.530;2022-11-24T01:40:10;99231.66;;;8.86
70389;BMP280;58659;49.050;8.530;2022-11-24T01:42:39;99234.94;;;8.83
70389;BMP280;58659;49.050;8.530;2022-11-24T01:47:52;99247.28;;;8.86
70389;BMP280;58659;49.050;8.530;2022-11-24T01:50:18;99250.56;;;8.83
70389;BMP280;58659;49.050;8.530;2022-11-24T01:52:46;99243.84;;;8.82
70389;BMP280;58659;49.050;8.530;2022-11-24T01:55:22;99253.25;;;8.86
70389;BMP280;58659;49.050;8.530;2022-11-24T01:57:54;99247.69;;;8.88
70389;BMP280;58659;49.050;8.530;2022-11-24T02:00:21;99253.97;;;8.87
70389;BMP280;58659;49.050;8.530;2022-11-24T02:02:46;99250.56;;;8.83
70389;BMP280;58659;49.050;8.530;2022-11-24T02:07:42;99261.50;;;8.92
70389;BMP280;58659;49.050;8.530;2022-11-24T02:10:11;99251.47;;;8.94
70389;BMP280;58659;49.050;8.530;2022-11-24T02:12:38;99251.00;;;8.85
70389;BMP280;58659;49.050;8.530;2022-11-24T02:15:05;99260.41;;;8.93
70389;BMP280;58659;49.050;8.530;2022-11-24T02:17:30;99262.94;;;8.89
70389;BMP280;58659;49.050;8.530;2022-11-24T02:19:58;99256.59;;;8.87
70389;BMP280;58659;49.050;8.530;2022-11-24T02:28:21;99262.91;;;8.86
70389;BMP280;58659;49.050;8.530;2022-11-24T02:30:47;99262.56;;;8.87
70389;BMP280;58659;49.050;8.530;2022-11-24T02:33:14;99264.50;;;8.94
70389;BMP280;58659;49.050;8.530;2022-11-24T02:35:39;99265.91;;;8.88
70389;BMP280;58659;49.050;8.530;2022-11-24T02:38:04;99263.31;;;8.88
70389;BMP280;58659;49.050;8.530;2022-11-24T02:40:30;99275.22;;;8.89
70389;BMP280;58659;49.050;8.530;2022-11-24T02:43:08;99264.78;;;8.89
70389;BMP280;58659;49.050;8.530;2022-11-24T02:45:34;99270.00;;;8.89
70389;BMP280;58659;49.050;8.530;2022-11-24T02:48:00;99259.59;;;8.89
70389;BMP280;58659;49.050;8.530;2022-11-24T02:50:25;99259.59;;;8.89
70389;BMP280;58659;49.050;8.530;2022-11-24T02:52:51;99264.94;;;8.96
70389;BMP280;58659;49.050;8.530;2022-11-24T02:55:16;99270.13;;;8.96
70389;BMP280;58659;49.050;8.530;2022-11-24T02:57:41;99279.13;;;8.99
70389;BMP280;58659;49.050;8.530;2022-11-24T03:00:07;99272.31;;;8.94
70389;BMP280;58659;49.050;8.530;2022-11-24T03:02:33;99259.94;;;8.87
70389;BMP280;58659;49.050;8.530;2022-11-24T03:04:58;99270.00;;;8.89
70389;BMP280;58659;49.050;8.530;2022-11-24T03:07:23;99275.94;;;8.86
70389;BMP280;58659;49.050;8.530;2022-11-24T03:09:49;99265.44;;;8.82
70389;BMP280;58659;49.050;8.530;2022-11-24T03:12:14;99273.72;;;8.88
70389;BMP280;58659;49.050;8.530;2022-11-24T03:14:39;99283.03;;;8.89
70389;BMP280;58659;49.050;8.530;2022-11-24T03:17:04;99275.19;;;8.85
70389;BMP280;58659;49.050;8.530;2022-11-24T03:19:31;99282.63;;;8.87
70389;BMP280;58659;49.050;8.530;2022-11-24T03:21:57;99283.66;;;8.79
70389;BMP280;58659;49.050;8.530;2022-11-24T03:24:22;99280.28;;;8.78
70389;BMP280;58659;49.050;8.530;2022-11-24T03:26:47;99280.28;;;8.78
70389;BMP280;58659;49.050;8.530;2022-11-24T03:29:12;99275.25;;;8.70
70389;BMP280;58659;49.050;8.530;2022-11-24T03:31:38;99276.09;;;8.74
70389;BMP280;58659;49.050;8.530;2022-11-24T03:34:03;99271.13;;;8.65
70389;BMP280;58659;49.050;8.530;2022-11-24T03:36:29;99264.22;;;8.54
70389;BMP280;58659;49.050;8.530;2022-11-24T03:38:54;99269.59;;;8.41
70389;BMP280;58659;49.050;8.530;2022-11-24T03:41:19;99279.03;;;8.49
70389;BMP280;58659;49.050;8.530;2022-11-24T03:43:44;99282.78;;;8.52
70389;BMP280;58659;49.050;8.530;2022-11-24T03:46:11;99280.66;;;8.58
70389;BMP280;58659;49.050;8.530;2022-11-24T03:48:36;99283.66;;;8.60
70389;BMP280;58659;49.050;8.530;2022-11-24T03:51:01;99278.06;;;8.58
70389;BMP280;58659;49.050;8.530;2022-11-24T03:53:30;99271.00;;;8.58
70389;BMP280;58659;49.050;8.530;2022-11-24T03:55:56;99280.66;;;8.58
70389;BMP280;58659;49.050;8.530;2022-11-24T03:58:22;99269.91;;;8.59
70389;BMP280;58659;49.050;8.530;2022-11-24T04:00:49;99274.81;;;8.64
70389;BMP280;58659;49.050;8.530;2022-11-24T04:03:14;99284.09;;;8.62
70389;BMP280;58659;49.050;8.530;2022-11-24T04:05:40;99296.81;;;8.67
70389;BMP280;58659;49.050;8.530;2022-11-24T04:08:05;99286.84;;;8.69
70389;BMP280;58659;49.050;8.530;2022-11-24T04:10:34;99284.69;;;8.74
70389;BMP280;58659;49.050;8.530;2022-11-24T04:13:01;99295.44;;;8.73
70389;BMP280;58659;49.050;8.530;2022-11-24T04:15:26;99292.81;;;8.73
70389;BMP280;58659;49.050;8.530;2022-11-24T04:17:53;99298.44;;;8.75
70389;BMP280;58659;49.050;8.530;2022-11-24T04:20:19;99293.91;;;8.72
70389;BMP280;58659;49.050;8.530;2022-11-24T04:22:44;99309.97;;;8.74
70389;BMP280;58659;49.050;8.530;2022-11-24T04:25:10;99306.19;;;8.71
70389;BMP280;58659;49.050;8.530;2022-11-24T04:27:36;99306.94;;;8.72
70389;BMP280;58659;49.050;8.530;2022-11-24T04:30:03;99311.72;;;8.70
70389;BMP280;58659;49.050;8.530;2022-11-24T04:32:28;99318.78;;;8.69
70389;BMP280;58659;49.050;8.530;2022-11-24T04:34:54;99309.88;;;8.70
70389;BMP280;58659;49.050;8.530;2022-11-24T04:37:19;99312.16;;;8.72
70389;BMP280;58659;49.050;8.530;2022-11-24T04:39:44;99316.69;;;8.75
70389;BMP280;58659;49.050;8.530;2022-11-24T04:42:11;99321.81;;;8.71
70389;BMP280;58659;49.050;8.530;2022-11-24T04:44:36;99315.06;;;8.70
70389;BMP280;58659;49.050;8.530;2022-11-24T04:47:01;99316.56;;;8.68
70389;BMP280;58659;49.050;8.530;2022-11-24T04:49:27;99319.63;;;8.73
70389;BMP280;58659;49.050;8.530;2022-11-24T04:51:52;99325.88;;;8.69
70389;BMP280;58659;49.050;8.530;2022-11-24T04:54:18;99316.59;;;8.71
70389;BMP280;58659;49.050;8.530;2022-11-24T04:56:43;99324.84;;;8.73
70389;BMP280;58659;49.050;8.530;2022-11-24T04:59:14;99328.28;;;8.81
70389;BMP280;58659;49.050;8.530;2022-11-24T05:01:41;99341.44;;;8.88
70389;BMP280;58659;49.050;8.530;2022-11-24T05:04:08;99334.66;;;8.83
70389;BMP280;58659;49.050;8.530;2022-11-24T05:06:34;99341.31;;;8.81
70389;BMP280;58659;49.050;8.530;2022-11-24T05:09:00;99345.16;;;8.87
70389;BMP280;58659;49.050;8.530;2022-11-24T05:11:25;99348.56;;;8.91
70389;BMP280;58659;49.050;8.530;2022-11-24T05:13:52;99354.47;;;8.88
70389;BMP280;58659;49.050;8.530;2022-11-24T05:16:17;99351.56;;;8.93
70389;BMP280;58659;49.050;8.530;2022-11-24T05:18:43;99349.25;;;8.88
70389;BMP280;58659;49.050;8.530;2022-11-24T05:21:08;99354.59;;;8.95
70389;BMP280;58659;49.050;8.530;2022-11-24T05:23:33;99360.22;;;8.97
70389;BMP280;58659;49.050;8.530;2022-11-24T05:25:59;99360.06;;;8.90
70389;BMP280;58659;49.050;8.530;2022-11-24T05:28:25;99362.56;;;8.83
70389;BMP280;58659;49.050;8.530;2022-11-24T05:30:51;99358.88;;;8.84
70389;BMP280;58659;49.050;8.530;2022-11-24T05:33:17;99369.41;;;8.91
70389;BMP280;58659;49.050;8.530;2022-11-24T05:35:48;99368.72;;;8.94
70389;BMP280;58659;49.050;8.530;2022-11-24T05:38:15;99363.19;;;8.99
70389;BMP280;58659;49.050;8.530;2022-11-24T05:40:41;99369.88;;;8.96
70389;BMP280;58659;49.050;8.530;2022-11-24T05:43:11;99377.97;;;8.91
70389;BMP280;58659;49.050;8.530;2022-11-24T05:45:37;99372.66;;;8.84
70389;BMP280;58659;49.050;8.530;2022-11-24T05:48:06;99373.28;;;8.78
70389;BMP280;58659;49.050;8.530;2022-11-24T05:50:32;99352.81;;;8.57
70389;BMP280;58659;49.050;8.530;2022-11-24T05:53:03;99336.34;;;8.53
70389;BMP280;58659;49.050;8.530;2022-11-24T05:55:28;99324.56;;;8.40
70389;BMP280;58659;49.050;8.530;2022-11-24T05:58:03;99317.41;;;8.33
70389;BMP280;58659;49.050;8.530;2022-11-24T06:00:30;99313.78;;;8.38
70389;BMP280;58659;49.050;8.530;2022-11-24T06:02:56;99311.47;;;8.33
70389;BMP280;58659;49.050;8.530;2022-11-24T06:05:22;99319.53;;;8.28
70389;BMP280;58659;49.050;8.530;2022-11-24T06:07:47;99318.06;;;8.27
70389;BMP280;58659;49.050;8.530;2022-11-24T06:10:15;99320.41;;;8.16
70389;BMP280;58659;49.050;8.530;2022-11-24T06:12:40;99294.00;;;8.14
70389;BMP280;58659;49.050;8.530;2022-11-24T06:15:06;99268.94;;;8.06
70389;BMP280;58659;49.050;8.530;2022-11-24T06:17:31;99256.28;;;8.05
70389;BMP280;58659;49.050;8.530;2022-11-24T06:19:56;99239.16;;;8.04
70389;BMP280;58659;49.050;8.530;2022-11-24T06:22:22;99225.66;;;7.98
70389;BMP280;58659;49.050;8.530;2022-11-24T06:24:47;99197.00;;;7.94
70389;BMP280;58659;49.050;8.530;2022-11-24T06:27:14;99193.66;;;7.94
70389;BMP280;58659;49.050;8.530;2022-11-24T06:29:40;99180.31;;;7.95
70389;BMP280;58659;49.050;8.530;2022-11-24T06:32:06;99177.13;;;7.86
70389;BMP280;58659;49.050;8.530;2022-11-24T06:34:31;99162.03;;;7.92
70389;BMP280;58659;49.050;8.530;2022-11-24T06:36:56;99150.06;;;7.87
70389;BMP280;58659;49.050;8.530;2022-11-24T06:39:22;99150.91;;;7.91
70389;BMP280;58659;49.050;8.530;2022-11-24T06:41:50;99156.72;;;7.85
70389;BMP280;58659;49.050;8.530;2022-11-24T06:44:16;99147.81;;;7.86
70389;BMP280;58659;49.050;8.530;2022-11-24T07:00:31;99136.72;;;7.89
70389;BMP280;58659;49.050;8.530;2022-11-24T07:02:59;99129.25;;;7.87
70389;BMP280;58659;49.050;8.530;2022-11-24T07:05:25;99118.09;;;7.87
70389;BMP280;58659;49.050;8.530;2022-11-24T07:07:51;99119.59;;;7.88
70389;BMP280;58659;49.050;8.530;2022-11-24T07:10:17;99120.19;;;7.78
70389;BMP280;58659;49.050;8.530;2022-11-24T07:12:42;99099.03;;;7.79
70389;BMP280;58659;49.050;8.530;2022-11-24T07:15:08;99109.78;;;7.78
70389;BMP280;58659;49.050;8.530;2022-11-24T07:17:37;99111.94;;;7.76
70389;BMP280;58659;49.050;8.530;2022-11-24T07:20:04;99128.94;;;7.70
70389;BMP280;58659;49.050;8.530;2022-11-24T07:22:30;99139.34;;;7.70
70389;BMP280;58659;49.050;8.530;2022-11-24T07:24:55;99152.59;;;7.65
70389;BMP280;58659;49.050;8.530;2022-11-24T07:27:20;99154.13;;;7.66
70389;BMP280;58659;49.050;8.530;2022-11-24T07:29:45;99172.66;;;7.64
70389;BMP280;58659;49.050;8.530;2022-11-24T07:32:11;99166.72;;;7.64
70389;BMP280;58659;49.050;8.530;2022-11-24T07:34:36;99174.56;;;7.67
70389;BMP280;58659;49.050;8.530;2022-11-24T07:37:01;99183.06;;;7.64
70389;BMP280;58659;49.050;8.530;2022-11-24T07:39:27;99200.91;;;7.66
70389;BMP280;58659;49.050;8.530;2022-11-24T07:41:52;99207.94;;;7.65
70389;BMP280;58659;49.050;8.530;2022-11-24T07:44:17;99212.06;;;7.66
70389;BMP280;58659;49.050;8.530;2022-11-24T07:46:42;99221.00;;;7.69
70389;BMP280;58659;49.050;8.530;2022-11-24T07:49:08;99232.94;;;7.70
70389;BMP280;58659;49.050;8.530;2022-11-24T07:51:33;99249.22;;;7.67
70389;BMP280;58659;49.050;8.530;2022-11-24T07:54:00;99278.13;;;7.65
70389;BMP280;58659;49.050;8.530;2022-11-24T07:56:26;99299.59;;;7.62
70389;BMP280;58659;49.050;8.530;2022-11-24T07:58:51;99306.69;;;7.62
70389;BMP280;58659;49.050;8.530;2022-11-24T08:01:17;99317.47;;;7.64
70389;BMP280;58659;49.050;8.530;2022-11-24T08:03:43;99335.00;;;7.67
70389;BMP280;58659;49.050;8.530;2022-11-24T08:06:09;99340.19;;;7.67
70389;BMP280;58659;49.050;8.530;2022-11-24T08:08:35;99362.16;;;7.69
70389;BMP280;58659;49.050;8.530;2022-11-24T08:11:07;99376.22;;;7.68
70389;BMP280;58659;49.050;8.530;2022-11-24T08:13:34;99383.63;;;7.66
70389;BMP280;58659;49.050;8.530;2022-11-24T08:16:05;99395.47;;;7.64
70389;BMP280;58659;49.050;8.530;2022-11-24T08:18:30;99389.22;;;7.68
70389;BMP280;58659;49.050;8.530;2022-11-24T08:20:59;99392.38;;;7.74
70389;BMP280;58659;49.050;8.530;2022-11-24T08:23:25;99410.94;;;7.76
70389;BMP280;58659;49.050;8.530;2022-11-24T08:25:50;99420.25;;;7.77
70389;BMP280;58659;49.050;8.530;2022-11-24T08:28:15;99436.28;;;7.79
70389;BMP280;58659;49.050;8.530;2022-11-24T08:30:41;99447.09;;;7.81
70389;BMP280;58659;49.050;8.530;2022-11-24T08:33:06;99443.75;;;7.80
70389;BMP280;58659;49.050;8.530;2022-11-24T08:35:35;99443.66;;;7.77
70389;BMP280;58659;49.050;8.530;2022-11-24T08:38:01;99457.50;;;7.81
70389;BMP280;58659;49.050;8.530;2022-11-24T08:40:26;99455.16;;;7.76
70389;BMP280;58659;49.050;8.530;2022-11-24T08:42:56;99438.47;;;7.77
70389;BMP280;58659;49.050;8.530;2022-11-24T08:45:21;99445.19;;;7.78
70389;BMP280;58659;49.050;8.530;2022-11-24T08:47:51;99447.78;;;7.78
70389;BMP280;58659;49.050;8.530;2022-11-24T08:50:16;99444.84;;;7.79
70389;BMP280;58659;49.050;8.530;2022-11-24T08:52:42;99458.75;;;7.87
70389;BMP280;58659;49.050;8.530;2022-11-24T08:55:10;99467.41;;;7.91
70389;BMP280;58659;49.050;8.530;2022-11-24T08:57:35;99479.22;;;7.88
70389;BMP280;58659;49.050;8.530;2022-11-24T09:00:05;99479.56;;;7.87
70389;BMP280;58659;49.050;8.530;2022-11-24T09:02:30;99476.38;;;7.93
70389;BMP280;58659;49.050;8.530;2022-11-24T09:04:56;99490.22;;;7.97
70389;BMP280;58659;49.050;8.530;2022-11-24T09:07:21;99507.00;;;8.00
70389;BMP280;58659;49.050;8.530;2022-11-24T09:09:46;99494.44;;;8.02
70389;BMP280;58659;49.050;8.530;2022-11-24T09:12:12;99526.13;;;7.92
70389;BMP280;58659;49.050;8.530;2022-11-24T09:14:37;99537.13;;;8.01
70389;BMP280;58659;49.050;8.530;2022-11-24T09:17:02;99544.94;;;8.01
70389;BMP280;58659;49.050;8.530;2022-11-24T09:19:27;99542.50;;;7.92
70389;BMP280;58659;49.050;8.530;2022-11-24T09:21:53;99542.97;;;7.98
70389;BMP280;58659;49.050;8.530;2022-11-24T09:24:18;99549.91;;;8.06
70389;BMP280;58659;49.050;8.530;2022-11-24T09:26:44;99549.63;;;8.11
70389;BMP280;58659;49.050;8.530;2022-11-24T09:29:09;99556.78;;;8.14
70389;BMP280;58659;49.050;8.530;2022-11-24T09:31:36;99561.03;;;8.22
70389;BMP280;58659;49.050;8.530;2022-11-24T09:34:07;99570.13;;;8.28
70389;BMP280;58659;49.050;8.530;2022-11-24T09:36:35;99575.16;;;8.37
70389;BMP280;58659;49.050;8.530;2022-11-24T09:39:00;99597.91;;;8.24
70389;BMP280;58659;49.050;8.530;2022-11-24T09:49:33;99603.19;;;8.12
70389;BMP280;58659;49.050;8.530;2022-11-24T09:52:02;99598.56;;;8.21
70389;BMP280;58659;49.050;8.530;2022-11-24T09:54:29;99587.22;;;8.29
70389;BMP280;58659;49.050;8.530;2022-11-24T09:56:59;99581.44;;;8.36
70389;BMP280;58659;49.050;8.530;2022-11-24T09:59:25;99571.25;;;8.46
70389;BMP280;58659;49.050;8.530;2022-11-24T10:01:52;99598.38;;;8.45
70389;BMP280;58659;49.050;8.530;2022-11-24T10:04:24;99583.53;;;8.46
70389;BMP280;58659;49.050;8.530;2022-11-24T10:07:07;99583.13;;;8.28
70389;BMP280;58659;49.050;8.530;2022-11-24T10:15:46;99540.88;;;8.19
70389;BMP280;58659;49.050;8.530;2022-11-24T10:28:57;99623.25;;;8.59
70389;BMP280;58659;49.050;8.530;2022-11-24T10:34:00;99607.03;;;8.65
70389;BMP280;58659;49.050;8.530;2022-11-24T10:39:33;99599.22;;;8.49
70389;BMP280;58659;49.050;8.530;2022-11-24T10:42:06;99580.16;;;8.45
70389;BMP280;58659;49.050;8.530;2022-11-24T10:44:38;99578.75;;;8.48
70389;BMP280;58659;49.050;8.530;2022-11-24T10:47:14;99578.06;;;8.51
70389;BMP280;58659;49.050;8.530;2022-11-24T10:49:54;99579.56;;;8.52
70389;BMP280;58659;49.050;8.530;2022-11-24T10:52:21;99581.00;;;8.49
70389;BMP280;58659;49.050;8.530;2022-11-24T10:57:38;99592.59;;;8.68
70389;BMP280;58659;49.050;8.530;2022-11-24T11:00:29;99595.34;;;8.94
70389;BMP280;58659;49.050;8.530;2022-11-24T11:03:17;99617.59;;;9.07
70389;BMP280;58659;49.050;8.530;2022-11-24T11:05:47;99631.75;;;9.25
70389;BMP280;58659;49.050;8.530;2022-11-24T11:10:50;99649.84;;;9.37
70389;BMP280;58659;49.050;8.530;2022-11-24T11:13:34;99656.03;;;9.48
70389;BMP280;58659;49.050;8.530;2022-11-24T11:15:59;99664.28;;;9.51
70389;BMP280;58659;49.050;8.530;2022-11-24T11:18:29;99651.06;;;9.63
70389;BMP280;58659;49.050;8.530;2022-11-24T11:20:57;99672.69;;;9.63
70389;BMP280;58659;49.050;8.530;2022-11-24T11:23:25;99671.75;;;9.71
70389;BMP280;58659;49.050;8.530;2022-11-24T11:31:22;99693.94;;;10.26
70389;BMP280;58659;49.050;8.530;2022-11-24T11:34:14;99703.16;;;10.43
70389;BMP280;58659;49.050;8.530;2022-11-24T11:36:45;99708.06;;;10.44
70389;BMP280;58659;49.050;8.530;2022-11-24T11:42:12;99702.00;;;10.18
70389;BMP280;58659;49.050;8.530;2022-11-24T11:47:37;99702.81;;;9.99
70389;BMP280;58659;49.050;8.530;2022-11-24T11:49:59;99710.66;;;9.80
70389;BMP280;58659;49.050;8.530;2022-11-24T11:53:16;99697.31;;;9.66
70389;BMP280;58659;49.050;8.530;2022-11-24T12:17:32;99731.16;;;10.01
70389;BMP280;58659;49.050;8.530;2022-11-24T12:20:34;99743.44;;;10.19
70389;BMP280;58659;49.050;8.530;2022-11-24T12:23:17;99750.75;;;10.33
70389;BMP280;58659;49.050;8.530;2022-11-24T12:25:49;99762.72;;;10.57
70389;BMP280;58659;49.050;8.530;2022-11-24T12:50:17;99767.47;;;10.51
70389;BMP280;58659;49.050;8.530;2022-11-24T12:52:49;99769.44;;;10.58
70389;BMP280;58659;49.050;8.530;2022-11-24T12:55:18;99764.72;;;10.63
70389;BMP280;58659;49.050;8.530;2022-11-24T12:57:54;99765.38;;;10.83
70389;BMP280;58659;49.050;8.530;2022-11-24T13:00:33;99759.59;;;10.70
70389;BMP280;58659;49.050;8.530;2022-11-24T13:03:22;99763.19;;;10.62
70389;BMP280;58659;49.050;8.530;2022-11-24T13:06:02;99766.03;;;10.54
70389;BMP280;58659;49.050;8.530;2022-11-24T13:08:30;99768.25;;;10.52
70389;BMP280;58659;49.050;8.530;2022-11-24T13:19:34;99750.59;;;10.22
70389;BMP280;58659;49.050;8.530;2022-11-24T13:24:30;99761.63;;;10.58
70389;BMP280;58659;49.050;8.530;2022-11-24T13:29:52;99770.91;;;10.55
70389;BMP280;58659;49.050;8.530;2022-11-24T13:56:06;99782.72;;;10.49
70389;BMP280;58659;49.050;8.530;2022-11-24T13:58:43;99785.19;;;10.38
70389;BMP280;58659;49.050;8.530;2022-11-24T14:03:44;99769.25;;;10.24
70389;BMP280;58659;49.050;8.530;2022-11-24T14:06:16;99774.47;;;10.24
70389;BMP280;58659;49.050;8.530;2022-11-24T14:08:44;99776.69;;;10.22
70389;BMP280;58659;49.050;8.530;2022-11-24T14:11:14;99768.47;;;10.24
70389;BMP280;58659;49.050;8.530;2022-11-24T14:13:40;99769.97;;;10.21
70389;BMP280;58659;49.050;8.530;2022-11-24T14:18:45;99777.69;;;10.18
70389;BMP280;58659;49.050;8.530;2022-11-24T14:23:48;99776.22;;;10.17
70389;BMP280;58659;49.050;8.530;2022-11-24T14:26:21;99779.16;;;10.15
70389;BMP280;58659;49.050;8.530;2022-11-24T14:28:47;99781.75;;;10.15
70389;BMP280;58659;49.050;8.530;2022-11-24T14:31:24;99778.81;;;10.17
70389;BMP280;58659;49.050;8.530;2022-11-24T14:34:05;99774.41;;;10.21
70389;BMP280;58659;49.050;8.530;2022-11-24T14:36:31;99778.44;;;10.37
70389;BMP280;58659;49.050;8.530;2022-11-24T14:38:56;99787.06;;;10.41
70389;BMP280;58659;49.050;8.530;2022-11-24T14:41:24;99782.84;;;10.33
70389;BMP280;58659;49.050;8.530;2022-11-24T14:46:38;99782.06;;;10.10
70389;BMP280;58659;49.050;8.530;2022-11-24T14:49:04;99782.81;;;9.91
70389;BMP280;58659;49.050;8.530;2022-11-24T14:51:30;99783.50;;;9.69
70389;BMP280;58659;49.050;8.530;2022-11-24T14:54:14;99771.59;;;9.53
70389;BMP280;58659;49.050;8.530;2022-11-24T14:56:55;99774.22;;;9.37
70389;BMP280;58659;49.050;8.530;2022-11-24T14:59:25;99768.63;;;9.19
70389;BMP280;58659;49.050;8.530;2022-11-24T15:01:55;99768.75;;;9.07
70389;BMP280;58659;49.050;8.530;2022-11-24T15:04:24;99764.28;;;8.92
70389;BMP280;58659;49.050;8.530;2022-11-24T15:09:41;99749.72;;;8.60
70389;BMP280;58659;49.050;8.530;2022-11-24T15:12:24;99757.34;;;8.53
70389;BMP280;58659;49.050;8.530;2022-11-24T15:14:55;99771.97;;;8.57
70389;BMP280;58659;49.050;8.530;2022-11-24T15:17:23;99774.44;;;8.66
70389;BMP280;58659;49.050;8.530;2022-11-24T15:20:02;99772.81;;;8.61
70389;BMP280;58659;49.050;8.530;2022-11-24T15:22:42;99758.78;;;8.50
70389;BMP280;58659;49.050;8.530;2022-11-24T15:25:30;99775.63;;;8.40
70389;BMP280;58659;49.050;8.530;2022-11-24T15:27:57;99768.44;;;8.22
70389;BMP280;58659;49.050;8.530;2022-11-24T15:30:22;99760.84;;;8.01
70389;BMP280;58659;49.050;8.530;2022-11-24T15:33:00;99753.38;;;7.87
70389;BMP280;58659;49.050;8.530;2022-11-24T15:35:29;99745.53;;;7.72
70389;BMP280;58659;49.050;8.530;2022-11-24T15:37:54;99720.09;;;7.53
70389;BMP280;58659;49.050;8.530;2022-11-24T15:40:20;99718.53;;;7.36
70389;BMP280;58659;49.050;8.530;2022-11-24T15:42:50;99705.53;;;7.24
70389;BMP280;58659;49.050;8.530;2022-11-24T15:45:16;99704.69;;;7.20
70389;BMP280;58659;49.050;8.530;2022-11-24T15:47:42;99700.66;;;7.11
70389;BMP280;58659;49.050;8.530;2022-11-24T15:50:08;99693.19;;;7.09
70389;BMP280;58659;49.050;8.530;2022-11-24T15:52:33;99685.75;;;7.08
70389;BMP280;58659;49.050;8.530;2022-11-24T15:54:59;99669.28;;;6.91
70389;BMP280;58659;49.050;8.530;2022-11-24T15:57:24;99673.31;;;6.89
70389;BMP280;58659;49.050;8.530;2022-11-24T15:59:51;99683.78;;;6.92
70389;BMP280;58659;49.050;8.530;2022-11-24T16:02:16;99708.25;;;6.91
70389;BMP280;58659;49.050;8.530;2022-11-24T16:04:41;99728.59;;;7.01
70389;BMP280;58659;49.050;8.530;2022-11-24T16:07:10;99727.72;;;6.97
70389;BMP280;58659;49.050;8.530;2022-11-24T16:09:36;99734.97;;;6.92
70389;BMP280;58659;49.050;8.530;2022-11-24T16:12:01;99721.88;;;6.76
70389;BMP280;58659;49.050;8.530;2022-11-24T16:14:28;99725.22;;;6.77
70389;BMP280;58659;49.050;8.530;2022-11-24T16:16:54;99747.97;;;7.04
70389;BMP280;58659;49.050;8.530;2022-11-24T16:19:19;99753.94;;;7.04
70389;BMP280;58659;49.050;8.530;2022-11-24T16:21:47;99761.94;;;7.12
70389;BMP280;58659;49.050;8.530;2022-11-24T16:24:13;99777.22;;;7.13
70389;BMP280;58659;49.050;8.530;2022-11-24T16:26:38;99779.06;;;7.25
70389;BMP280;58659;49.050;8.530;2022-11-24T16:29:05;99787.38;;;7.30
70389;BMP280;58659;49.050;8.530;2022-11-24T16:31:31;99787.06;;;7.32
70389;BMP280;58659;49.050;8.530;2022-11-24T16:33:56;99783.47;;;7.12
70389;BMP280;58659;49.050;8.530;2022-11-24T16:36:21;99781.63;;;7.00
70389;BMP280;58659;49.050;8.530;2022-11-24T16:38:47;99782.38;;;6.89
70389;BMP280;58659;49.050;8.530;2022-11-24T16:41:12;99778.69;;;6.90
70389;BMP280;58659;49.050;8.530;2022-11-24T16:43:38;99779.53;;;6.94
70389;BMP280;58659;49.050;8.530;2022-11-24T16:48:39;99779.94;;;6.72
70389;BMP280;58659;49.050;8.530;2022-11-24T16:51:06;99774.06;;;6.63
70389;BMP280;58659;49.050;8.530;2022-11-24T16:53:31;99772.19;;;6.51
70389;BMP280;58659;49.050;8.530;2022-11-24T16:55:57;99765.47;;;6.50
70389;BMP280;58659;49.050;8.530;2022-11-24T16:58:22;99751.84;;;6.41
70389;BMP280;58659;49.050;8.530;2022-11-24T17:00:47;99756.56;;;6.39
70389;BMP280;58659;49.050;8.530;2022-11-24T17:03:13;99756.72;;;6.42
70389;BMP280;58659;49.050;8.530;2022-11-24T17:05:38;99761.00;;;6.38
70389;BMP280;58659;49.050;8.530;2022-11-24T17:08:04;99763.59;;;6.38
70389;BMP280;58659;49.050;8.530;2022-11-24T17:10:29;99760.13;;;6.34